Time,TemperatureF,DewpointF,PressureIn,WindDirection,WindDirectionDegrees,WindSpeedMPH,WindSpeedGustMPH,Humidity,HourlyPrecipIn,Conditions,Clouds,dailyrainin,SoftwareType,DateUTC
2013-03-12 00:03:00,20.3,11.4,29.82,WSW,241,3.1,3.6,68,0.00,,---,0.00,VWS V14.00,2013-03-12 05:03:00,
2013-03-12 00:08:00,20.1,11.3,29.82,WSW,258,2.7,3.6,68,0.00,,---,0.00,VWS V14.00,2013-03-12 05:08:00,
2013-03-12 00:13:00,19.8,11.2,29.82,West,265,0.0,3.6,69,0.00,,---,0.00,VWS V14.00,2013-03-12 05:13:00,
2013-03-12 00:18:00,19.0,10.6,29.82,West,265,0.0,0.0,69,0.00,,---,0.00,VWS V14.00,2013-03-12 05:18:00,
2013-03-12 00:23:00,18.5,10.0,29.82,West,264,3.1,3.6,69,0.00,,---,0.00,VWS V14.00,2013-03-12 05:23:00,
2013-03-12 00:28:00,17.8,9.4,29.82,WSW,252,2.7,3.6,69,0.00,,---,0.00,VWS V14.00,2013-03-12 05:28:00,
2013-03-12 00:33:00,17.6,9.2,29.82,West,265,0.0,4.0,69,0.00,,---,0.00,VWS V14.00,2013-03-12 05:33:00,
2013-03-12 00:38:00,17.4,9.0,29.82,West,266,2.7,2.7,69,0.00,,---,0.00,VWS V14.00,2013-03-12 05:38:00,
2013-03-12 00:43:00,17.1,8.7,29.82,West,265,2.7,2.7,69,0.00,,---,0.00,VWS V14.00,2013-03-12 05:43:00,
2013-03-12 00:48:00,16.7,8.3,29.82,WSW,246,0.0,3.6,69,0.00,,---,0.00,VWS V14.00,2013-03-12 05:48:00,
2013-03-12 00:53:00,16.3,8.3,29.82,WSW,246,0.0,3.1,70,0.00,,---,0.00,VWS V14.00,2013-03-12 05:53:00,
2013-03-12 00:58:00,16.3,8.3,29.82,West,266,2.7,3.6,70,0.00,,---,0.00,VWS V14.00,2013-03-12 05:58:00,
2013-03-12 01:03:00,16.3,8.3,29.82,WSW,256,2.7,2.7,70,0.00,,---,0.00,VWS V14.00,2013-03-12 06:03:00,
2013-03-12 01:08:00,16.9,9.1,29.82,WSW,257,0.0,0.0,71,0.00,,---,0.00,VWS V14.00,2013-03-12 06:08:00,
2013-03-12 01:13:00,17.6,10.1,29.82,WSW,258,0.0,2.7,72,0.00,,---,0.00,VWS V14.00,2013-03-12 06:13:00,
2013-03-12 01:18:00,18.0,10.8,29.82,WSW,258,2.2,2.2,73,0.00,,---,0.00,VWS V14.00,2013-03-12 06:18:00,
2013-03-12 01:23:00,18.3,11.1,29.82,WSW,257,2.2,3.6,73,0.00,,---,0.00,VWS V14.00,2013-03-12 06:23:00,
2013-03-12 01:28:00,18.7,11.8,29.82,WSW,249,2.7,4.0,74,0.00,,---,0.00,VWS V14.00,2013-03-12 06:28:00,
2013-03-12 01:33:00,19.0,12.1,29.82,WSW,250,2.7,4.0,74,0.00,,---,0.00,VWS V14.00,2013-03-12 06:33:00,
2013-03-12 01:38:00,19.2,12.6,29.82,WSW,251,4.0,4.5,75,0.00,,---,0.00,VWS V14.00,2013-03-12 06:38:00,
2013-03-12 01:43:00,19.4,12.8,29.79,WSW,250,2.2,2.2,75,0.00,,---,0.00,VWS V14.00,2013-03-12 06:43:00,
2013-03-12 01:48:00,19.4,12.8,29.79,WSW,249,2.2,3.6,75,0.00,,---,0.00,VWS V14.00,2013-03-12 06:48:00,
2013-03-12 01:53:00,19.6,13.0,29.79,WSW,240,3.1,4.0,75,0.00,,---,0.00,VWS V14.00,2013-03-12 06:53:00,
2013-03-12 01:58:00,19.8,13.1,29.82,WSW,241,2.7,3.1,75,0.00,,---,0.00,VWS V14.00,2013-03-12 06:58:00,
2013-03-12 02:03:00,19.8,13.4,29.82,WSW,252,4.0,4.0,76,0.00,,---,0.00,VWS V14.00,2013-03-12 07:03:00,
2013-03-12 02:08:00,19.9,13.6,29.82,WSW,258,2.7,4.0,76,0.00,,---,0.00,VWS V14.00,2013-03-12 07:08:00,
2013-03-12 02:13:00,19.9,13.6,29.82,WSW,238,2.7,3.1,76,0.00,,---,0.00,VWS V14.00,2013-03-12 07:13:00,
2013-03-12 02:18:00,20.1,13.8,29.82,West,274,2.2,3.6,76,0.00,,---,0.00,VWS V14.00,2013-03-12 07:18:00,
2013-03-12 02:23:00,20.1,13.8,29.82,West,264,2.7,4.0,76,0.00,,---,0.00,VWS V14.00,2013-03-12 07:23:00,
2013-03-12 02:28:00,20.3,14.0,29.82,West,264,2.2,2.7,76,0.00,,---,0.00,VWS V14.00,2013-03-12 07:28:00,
2013-03-12 02:33:00,20.3,13.7,29.82,West,264,0.0,2.2,75,0.00,,---,0.00,VWS V14.00,2013-03-12 07:33:00,
2013-03-12 02:38:00,20.3,13.7,29.82,West,264,0.0,0.0,75,0.00,,---,0.00,VWS V14.00,2013-03-12 07:38:00,
2013-03-12 02:43:00,20.3,13.7,29.82,West,264,0.0,2.2,75,0.00,,---,0.00,VWS V14.00,2013-03-12 07:43:00,
2013-03-12 02:48:00,20.5,13.8,29.82,West,264,0.0,0.0,75,0.00,,---,0.00,VWS V14.00,2013-03-12 07:48:00,
2013-03-12 02:54:00,20.5,13.8,29.82,West,264,0.0,2.2,75,0.00,,---,0.00,VWS V14.00,2013-03-12 07:54:00,
2013-03-12 02:59:00,20.7,14.0,29.82,West,264,0.0,0.0,75,0.00,,---,0.00,VWS V14.00,2013-03-12 07:59:00,
2013-03-12 03:04:00,20.7,14.0,29.82,West,264,2.7,2.7,75,0.00,,---,0.00,VWS V14.00,2013-03-12 08:04:00,
2013-03-12 03:09:00,20.7,13.7,29.82,WSW,238,3.1,4.9,74,0.00,,---,0.00,VWS V14.00,2013-03-12 08:09:00,
2013-03-12 03:14:00,20.8,13.9,29.82,WSW,258,2.2,3.1,74,0.00,,---,0.00,VWS V14.00,2013-03-12 08:14:00,
2013-03-12 03:19:00,20.8,13.9,29.82,WSW,258,3.1,5.4,74,0.00,,---,0.00,VWS V14.00,2013-03-12 08:19:00,
2013-03-12 03:24:00,21.0,14.1,29.82,WSW,246,3.1,6.3,74,0.00,,---,0.00,VWS V14.00,2013-03-12 08:24:00,
2013-03-12 03:29:00,21.0,13.7,29.82,West,277,3.1,3.6,73,0.00,,---,0.00,VWS V14.00,2013-03-12 08:29:00,
2013-03-12 03:34:00,21.0,13.4,29.82,West,280,2.2,3.6,72,0.00,,---,0.00,VWS V14.00,2013-03-12 08:34:00,
2013-03-12 03:39:00,21.2,13.3,29.82,WNW,283,2.7,5.8,71,0.00,,---,0.00,VWS V14.00,2013-03-12 08:39:00,
2013-03-12 03:44:00,21.2,13.3,29.82,WNW,287,6.3,6.3,71,0.00,,---,0.00,VWS V14.00,2013-03-12 08:44:00,
2013-03-12 03:49:00,21.2,13.0,29.82,WSW,252,4.0,4.0,70,0.00,,---,0.00,VWS V14.00,2013-03-12 08:49:00,
2013-03-12 03:54:00,21.2,12.6,29.82,West,266,3.1,5.4,69,0.00,,---,0.00,VWS V14.00,2013-03-12 08:54:00,
2013-03-12 03:59:00,21.4,12.1,29.82,WSW,252,4.0,5.8,67,0.00,,---,0.00,VWS V14.00,2013-03-12 08:59:00,
2013-03-12 04:04:00,21.4,11.5,29.82,WSW,247,3.1,5.8,65,0.00,,---,0.00,VWS V14.00,2013-03-12 09:04:00,
2013-03-12 04:09:00,21.6,11.3,29.82,WNW,295,3.1,5.4,64,0.00,,---,0.00,VWS V14.00,2013-03-12 09:09:00,
2013-03-12 04:14:00,21.6,10.6,29.82,WNW,302,4.0,4.0,62,0.00,,---,0.00,VWS V14.00,2013-03-12 09:14:00,
2013-03-12 04:19:00,21.6,10.2,29.82,West,261,4.0,6.3,61,0.00,,---,0.00,VWS V14.00,2013-03-12 09:19:00,
2013-03-12 04:24:00,21.6,9.8,29.82,West,276,4.0,4.0,60,0.00,,---,0.00,VWS V14.00,2013-03-12 09:24:00,
2013-03-12 04:29:00,21.6,9.5,29.82,West,277,4.0,4.0,59,0.00,,---,0.00,VWS V14.00,2013-03-12 09:29:00,
2013-03-12 04:34:00,21.6,9.5,29.82,WNW,282,5.4,5.4,59,0.00,,---,0.00,VWS V14.00,2013-03-12 09:34:00,
2013-03-12 04:39:00,21.7,9.2,29.82,WNW,297,3.6,6.3,58,0.00,,---,0.00,VWS V14.00,2013-03-12 09:39:00,
2013-03-12 04:44:00,21.7,8.9,29.82,WNW,291,4.0,5.4,57,0.00,,---,0.00,VWS V14.00,2013-03-12 09:44:00,
2013-03-12 04:49:00,21.7,8.9,29.82,WSW,250,3.6,5.8,57,0.00,,---,0.00,VWS V14.00,2013-03-12 09:49:00,
2013-03-12 04:54:00,21.7,8.9,29.82,WNW,287,4.0,4.0,57,0.00,,---,0.00,VWS V14.00,2013-03-12 09:54:00,
2013-03-12 04:59:00,21.7,8.9,29.82,NW,305,4.0,4.5,57,0.00,,---,0.00,VWS V14.00,2013-03-12 09:59:00,
2013-03-12 05:04:00,21.7,8.9,29.82,NW,304,3.1,3.6,57,0.00,,---,0.00,VWS V14.00,2013-03-12 10:04:00,
2013-03-12 05:09:00,21.7,8.9,29.82,NW,308,4.0,4.9,57,0.00,,---,0.00,VWS V14.00,2013-03-12 10:09:00,
2013-03-12 05:14:00,21.6,8.7,29.82,NW,320,3.6,5.8,57,0.00,,---,0.00,VWS V14.00,2013-03-12 10:14:00,
2013-03-12 05:20:00,21.6,8.7,29.82,WNW,287,4.5,4.5,57,0.00,,---,0.00,VWS V14.00,2013-03-12 10:20:00,
2013-03-12 05:25:00,21.6,8.7,29.82,WNW,286,2.2,3.1,57,0.00,,---,0.00,VWS V14.00,2013-03-12 10:25:00,
2013-03-12 05:29:00,21.6,8.7,29.82,WNW,286,3.6,4.0,57,0.00,,---,0.00,VWS V14.00,2013-03-12 10:29:00,
2013-03-12 05:35:00,21.6,8.7,29.82,WNW,283,3.1,4.0,57,0.00,,---,0.00,VWS V14.00,2013-03-12 10:35:00,
2013-03-12 05:40:00,21.6,8.7,29.82,West,281,3.6,4.0,57,0.00,,---,0.00,VWS V14.00,2013-03-12 10:40:00,
2013-03-12 05:45:00,21.6,8.7,29.82,NW,305,5.4,6.7,57,0.00,,---,0.00,VWS V14.00,2013-03-12 10:45:00,
2013-03-12 05:50:00,21.6,8.7,29.82,West,269,2.7,4.0,57,0.00,,---,0.00,VWS V14.00,2013-03-12 10:50:00,
2013-03-12 05:55:00,21.6,8.7,29.82,WSW,250,3.6,6.3,57,0.00,,---,0.00,VWS V14.00,2013-03-12 10:55:00,
2013-03-12 06:00:00,21.6,9.1,29.85,West,275,3.6,3.6,58,0.00,,---,0.00,VWS V14.00,2013-03-12 11:00:00,
2013-03-12 06:05:00,21.6,9.1,29.85,West,281,4.9,6.3,58,0.00,,---,0.00,VWS V14.00,2013-03-12 11:05:00,
2013-03-12 06:10:00,21.6,9.1,29.85,West,274,5.8,5.8,58,0.00,,---,0.00,VWS V14.00,2013-03-12 11:10:00,
2013-03-12 06:15:00,21.6,9.1,29.85,NW,304,5.8,6.7,58,0.00,,---,0.00,VWS V14.00,2013-03-12 11:15:00,
2013-03-12 06:20:00,21.6,9.1,29.85,WNW,302,4.0,5.4,58,0.00,,---,0.00,VWS V14.00,2013-03-12 11:20:00,
2013-03-12 06:25:00,21.6,9.1,29.85,NW,306,4.9,5.8,58,0.00,,---,0.00,VWS V14.00,2013-03-12 11:25:00,
2013-03-12 06:30:00,21.6,9.1,29.85,WNW,299,5.8,7.2,58,0.00,,---,0.00,VWS V14.00,2013-03-12 11:30:00,
2013-03-12 06:35:00,21.6,9.1,29.85,NW,321,6.3,6.3,58,0.00,,---,0.00,VWS V14.00,2013-03-12 11:35:00,
2013-03-12 06:40:00,21.6,9.5,29.85,WNW,283,5.8,8.3,59,0.00,,---,0.00,VWS V14.00,2013-03-12 11:40:00,
2013-03-12 06:45:00,21.7,9.6,29.85,NW,312,6.3,8.3,59,0.00,,---,0.00,VWS V14.00,2013-03-12 11:45:00,
2013-03-12 06:50:00,21.7,9.6,29.85,NW,310,8.3,8.3,59,0.00,,---,0.00,VWS V14.00,2013-03-12 11:50:00,
2013-03-12 06:55:00,21.6,9.5,29.85,NW,308,7.6,8.1,59,0.00,,---,0.00,VWS V14.00,2013-03-12 11:55:00,
2013-03-12 07:00:00,21.6,9.8,29.85,WNW,295,7.6,9.2,60,0.00,,---,0.00,VWS V14.00,2013-03-12 12:00:00,
2013-03-12 07:05:00,21.6,9.8,29.85,WNW,298,7.6,10.1,60,0.00,,---,0.00,VWS V14.00,2013-03-12 12:05:00,
2013-03-12 07:10:00,21.6,9.8,29.85,NW,308,11.0,11.0,60,0.00,,---,0.00,VWS V14.00,2013-03-12 12:10:00,
2013-03-12 07:15:00,21.6,10.2,29.85,NW,319,5.4,8.3,61,0.00,,---,0.00,VWS V14.00,2013-03-12 12:15:00,
2013-03-12 07:20:00,21.6,10.2,29.85,NW,306,5.8,8.1,61,0.00,,---,0.00,VWS V14.00,2013-03-12 12:20:00,
2013-03-12 07:25:00,21.4,10.0,29.85,NW,310,6.3,6.3,61,0.00,,---,0.00,VWS V14.00,2013-03-12 12:25:00,
2013-03-12 07:30:00,21.4,10.4,29.85,NNW,329,5.4,6.7,62,0.00,,---,0.00,VWS V14.00,2013-03-12 12:30:00,
2013-03-12 07:35:00,21.4,10.4,29.85,NW,310,8.7,8.7,62,0.00,,---,0.00,VWS V14.00,2013-03-12 12:35:00,
2013-03-12 07:40:00,21.4,10.4,29.85,NW,318,6.3,6.3,62,0.00,,---,0.00,VWS V14.00,2013-03-12 12:40:00,
2013-03-12 07:45:00,21.4,10.4,29.85,NW,318,5.8,6.3,62,0.00,,---,0.00,VWS V14.00,2013-03-12 12:45:00,
2013-03-12 07:50:00,21.4,10.8,29.85,NNW,336,6.3,8.3,63,0.00,,---,0.00,VWS V14.00,2013-03-12 12:50:00,
2013-03-12 07:55:00,21.4,10.8,29.85,NW,326,5.4,8.7,63,0.00,,---,0.00,VWS V14.00,2013-03-12 12:55:00,
2013-03-12 08:00:00,21.4,10.4,29.88,NW,313,8.3,8.3,62,0.00,,---,0.00,VWS V14.00,2013-03-12 13:00:00,
2013-03-12 08:05:00,21.6,10.6,29.88,NW,308,6.3,8.1,62,0.00,,---,0.00,VWS V14.00,2013-03-12 13:05:00,
2013-03-12 08:10:00,21.7,10.7,29.88,NW,325,6.3,8.3,62,0.00,,---,0.00,VWS V14.00,2013-03-12 13:10:00,
2013-03-12 08:15:00,21.7,10.4,29.88,NW,312,7.6,8.7,61,0.00,,---,0.00,VWS V14.00,2013-03-12 13:15:00,
2013-03-12 08:20:00,21.9,10.6,29.88,WNW,302,8.3,10.1,61,0.00,,---,0.00,VWS V14.00,2013-03-12 13:20:00,
2013-03-12 08:26:00,21.9,9.8,29.88,NW,309,7.6,11.4,59,0.00,,---,0.00,VWS V14.00,2013-03-12 13:26:00,
2013-03-12 08:30:00,21.7,9.2,29.88,NNW,330,5.4,11.0,58,0.00,,---,0.00,VWS V14.00,2013-03-12 13:30:00,
2013-03-12 08:35:00,21.9,9.4,29.88,NW,317,8.7,11.0,58,0.00,,---,0.00,VWS V14.00,2013-03-12 13:35:00,
2013-03-12 08:41:00,22.1,9.2,29.88,NNW,343,10.1,15.0,57,0.00,,---,0.00,VWS V14.00,2013-03-12 13:41:00,
2013-03-12 08:46:00,22.1,8.4,29.88,NW,318,8.7,10.5,55,0.00,,---,0.00,VWS V14.00,2013-03-12 13:46:00,
2013-03-12 08:51:00,22.5,8.8,29.88,NW,321,7.6,10.5,55,0.00,,---,0.00,VWS V14.00,2013-03-12 13:51:00,
2013-03-12 08:56:00,23.4,9.2,29.88,NNW,328,8.7,8.7,54,0.00,,---,0.00,VWS V14.00,2013-03-12 13:56:00,
2013-03-12 09:01:00,23.5,8.5,29.88,NW,324,7.6,12.3,52,0.00,,---,0.00,VWS V14.00,2013-03-12 14:01:00,
2013-03-12 09:07:00,23.9,8.9,29.88,NW,321,8.3,10.5,52,0.00,,---,0.00,VWS V14.00,2013-03-12 14:07:00,
2013-03-12 09:12:00,24.6,9.5,29.88,WNW,282,5.8,7.6,52,0.00,,---,0.00,VWS V14.00,2013-03-12 14:12:00,
2013-03-12 09:17:00,25.2,8.7,29.88,NW,304,7.2,10.1,49,0.00,,---,0.00,VWS V14.00,2013-03-12 14:17:00,
2013-03-12 09:22:00,25.5,8.6,29.88,NW,311,8.3,10.1,48,0.00,,---,0.00,VWS V14.00,2013-03-12 14:22:00,
2013-03-12 09:27:00,25.7,8.3,29.88,NW,320,8.1,12.3,47,0.00,,---,0.00,VWS V14.00,2013-03-12 14:27:00,
2013-03-12 09:32:00,25.5,8.1,29.88,NNW,337,15.0,15.0,47,0.00,,---,0.00,VWS V14.00,2013-03-12 14:32:00,
2013-03-12 09:37:00,25.5,7.6,29.88,WNW,301,5.4,8.7,46,0.00,,---,0.00,VWS V14.00,2013-03-12 14:37:00,
2013-03-12 09:42:00,26.6,9.1,29.91,NNW,337,11.0,11.0,47,0.00,,---,0.00,VWS V14.00,2013-03-12 14:42:00,
2013-03-12 09:47:00,27.0,8.5,29.91,WNW,295,12.3,12.8,45,0.00,,---,0.00,VWS V14.00,2013-03-12 14:47:00,
2013-03-12 09:52:00,26.4,8.0,29.91,WNW,297,13.2,13.2,45,0.00,,---,0.00,VWS V14.00,2013-03-12 14:52:00,
2013-03-12 09:57:00,25.9,7.5,29.91,WNW,295,12.3,15.4,45,0.00,,---,0.00,VWS V14.00,2013-03-12 14:57:00,
2013-03-12 10:02:00,25.5,7.6,29.91,NW,317,10.1,11.0,46,0.00,,---,0.00,VWS V14.00,2013-03-12 15:02:00,
2013-03-12 10:07:00,25.9,8.0,29.91,NNW,333,8.1,12.8,46,0.00,,---,0.00,VWS V14.00,2013-03-12 15:07:00,
2013-03-12 10:12:00,25.7,7.8,29.91,North,350,10.1,13.2,46,0.00,,---,0.00,VWS V14.00,2013-03-12 15:12:00,
2013-03-12 10:17:00,25.7,8.7,29.91,NW,323,11.0,11.0,48,0.00,,---,0.00,VWS V14.00,2013-03-12 15:17:00,
2013-03-12 10:22:00,25.9,8.4,29.91,NW,322,9.6,10.5,47,0.00,,---,0.00,VWS V14.00,2013-03-12 15:22:00,
2013-03-12 10:28:00,27.0,9.4,29.91,NNW,345,10.1,13.2,47,0.00,,---,0.00,VWS V14.00,2013-03-12 15:28:00,
2013-03-12 10:33:00,27.7,9.6,29.91,North,350,8.1,8.7,46,0.00,,---,0.00,VWS V14.00,2013-03-12 15:33:00,
2013-03-12 10:38:00,28.0,9.4,29.91,WNW,303,12.3,12.3,45,0.00,,---,0.00,VWS V14.00,2013-03-12 15:38:00,
2013-03-12 10:43:00,27.7,9.1,29.91,NW,313,8.3,11.0,45,0.00,,---,0.00,VWS V14.00,2013-03-12 15:43:00,
2013-03-12 10:48:00,28.4,9.8,29.91,NW,312,8.7,10.1,45,0.00,,---,0.00,VWS V14.00,2013-03-12 15:48:00,
2013-03-12 10:53:00,29.7,10.9,29.91,NNW,338,14.5,14.5,45,0.00,,---,0.00,VWS V14.00,2013-03-12 15:53:00,
2013-03-12 10:58:00,29.5,10.3,29.91,NW,309,13.2,13.2,44,0.00,,---,0.00,VWS V14.00,2013-03-12 15:58:00,
2013-03-12 11:03:00,29.5,10.3,29.91,WNW,296,8.3,11.0,44,0.00,,---,0.00,VWS V14.00,2013-03-12 16:03:00,
2013-03-12 11:08:00,28.6,9.9,29.91,NW,309,10.1,11.0,45,0.00,,---,0.00,VWS V14.00,2013-03-12 16:08:00,
2013-03-12 11:13:00,28.9,11.2,29.93,NW,325,12.3,12.3,47,0.00,,---,0.00,VWS V14.00,2013-03-12 16:13:00,
2013-03-12 11:18:00,28.6,10.4,29.93,NW,310,10.5,11.0,46,0.00,,---,0.00,VWS V14.00,2013-03-12 16:18:00,
2013-03-12 11:23:00,28.2,10.1,29.93,NW,319,11.0,12.8,46,0.00,,---,0.00,VWS V14.00,2013-03-12 16:23:00,
2013-03-12 11:28:00,28.6,10.9,29.93,NNW,334,10.5,13.2,47,0.00,,---,0.00,VWS V14.00,2013-03-12 16:28:00,
2013-03-12 11:33:00,28.6,9.9,29.93,North,350,12.8,16.8,45,0.00,,---,0.00,VWS V14.00,2013-03-12 16:33:00,
2013-03-12 11:38:00,29.1,10.9,29.93,NW,311,8.1,8.7,46,0.00,,---,0.00,VWS V14.00,2013-03-12 16:38:00,
2013-03-12 11:43:00,29.7,11.4,29.93,NW,306,8.1,15.0,46,0.00,,---,0.00,VWS V14.00,2013-03-12 16:43:00,
2013-03-12 11:48:00,30.2,11.4,29.93,North,0,11.0,12.8,45,0.00,,---,0.00,VWS V14.00,2013-03-12 16:48:00,
2013-03-12 11:53:00,30.4,11.1,29.93,NNW,344,15.0,15.0,44,0.00,,---,0.00,VWS V14.00,2013-03-12 16:53:00,
2013-03-12 11:58:00,30.7,11.4,29.93,NW,322,7.6,11.0,44,0.00,,---,0.00,VWS V14.00,2013-03-12 16:58:00,
2013-03-12 12:03:00,31.5,12.1,29.93,WNW,301,8.3,12.8,44,0.00,,---,0.00,VWS V14.00,2013-03-12 17:03:00,
2013-03-12 12:08:00,31.3,10.9,29.93,NNW,332,12.8,15.4,42,0.00,,---,0.00,VWS V14.00,2013-03-12 17:08:00,
2013-03-12 12:13:00,31.5,11.0,29.93,NW,308,11.0,12.8,42,0.00,,---,0.00,VWS V14.00,2013-03-12 17:13:00,
2013-03-12 12:18:00,31.8,10.8,29.93,NW,308,10.5,15.9,41,0.00,,---,0.00,VWS V14.00,2013-03-12 17:18:00,
2013-03-12 12:23:00,31.3,10.9,29.93,NNW,328,10.1,11.0,42,0.00,,---,0.00,VWS V14.00,2013-03-12 17:23:00,
2013-03-12 12:28:00,31.8,11.4,29.93,NW,323,8.1,12.8,42,0.00,,---,0.00,VWS V14.00,2013-03-12 17:28:00,
2013-03-12 12:34:00,32.2,11.1,29.93,NW,313,10.1,13.2,41,0.00,,---,0.00,VWS V14.00,2013-03-12 17:34:00,
2013-03-12 12:39:00,33.1,12.5,29.93,NW,304,6.3,13.2,42,0.00,,---,0.00,VWS V14.00,2013-03-12 17:39:00,
2013-03-12 12:44:00,33.8,12.6,29.93,NNW,346,12.8,14.1,41,0.00,,---,0.00,VWS V14.00,2013-03-12 17:44:00,
2013-03-12 12:49:00,34.0,12.8,29.93,NNW,327,10.5,15.4,41,0.00,,---,0.00,VWS V14.00,2013-03-12 17:49:00,
2013-03-12 12:54:00,33.1,12.0,29.93,NNW,329,13.2,13.6,41,0.00,,---,0.00,VWS V14.00,2013-03-12 17:54:00,
2013-03-12 12:59:00,33.1,12.0,29.93,NNW,339,12.8,12.8,41,0.00,,---,0.00,VWS V14.00,2013-03-12 17:59:00,
2013-03-12 13:04:00,33.1,12.0,29.93,NW,314,8.7,11.0,41,0.00,,---,0.00,VWS V14.00,2013-03-12 18:04:00,
2013-03-12 13:09:00,33.3,12.1,29.93,NNW,328,12.8,12.8,41,0.00,,---,0.00,VWS V14.00,2013-03-12 18:09:00,
2013-03-12 13:14:00,33.6,12.4,29.93,NW,313,14.1,17.4,41,0.00,,---,0.00,VWS V14.00,2013-03-12 18:14:00,
2013-03-12 13:19:00,32.0,10.4,29.93,NW,305,15.4,15.4,40,0.00,,---,0.00,VWS V14.00,2013-03-12 18:19:00,
2013-03-12 13:24:00,31.6,10.6,29.93,NNW,340,15.0,17.4,41,0.00,,---,0.00,VWS V14.00,2013-03-12 18:24:00,
2013-03-12 13:29:00,31.5,10.5,29.93,NNW,327,11.0,15.0,41,0.00,,---,0.00,VWS V14.00,2013-03-12 18:29:00,
2013-03-12 13:34:00,31.5,10.5,29.93,NNW,334,10.5,16.8,41,0.00,,---,0.00,VWS V14.00,2013-03-12 18:34:00,
2013-03-12 13:39:00,32.2,10.6,29.93,NNW,327,13.2,15.9,40,0.00,,---,0.00,VWS V14.00,2013-03-12 18:39:00,
2013-03-12 13:44:00,32.4,10.8,29.93,NNW,333,13.2,15.0,40,0.00,,---,0.00,VWS V14.00,2013-03-12 18:44:00,
2013-03-12 13:49:00,32.0,10.4,29.93,WNW,290,8.7,11.0,40,0.00,,---,0.00,VWS V14.00,2013-03-12 18:49:00,
2013-03-12 13:54:00,31.1,10.2,29.93,NNW,330,10.1,15.4,41,0.00,,---,0.00,VWS V14.00,2013-03-12 18:54:00,
2013-03-12 13:59:00,32.0,11.0,29.93,WNW,289,10.5,12.8,41,0.00,,---,0.00,VWS V14.00,2013-03-12 18:59:00,
2013-03-12 14:04:00,34.0,12.2,29.93,NW,322,14.5,14.5,40,0.00,,---,0.00,VWS V14.00,2013-03-12 19:04:00,
2013-03-12 14:09:00,33.6,11.9,29.93,WNW,301,10.5,17.4,40,0.00,,---,0.00,VWS V14.00,2013-03-12 19:09:00,
2013-03-12 14:14:00,32.9,11.2,29.93,WNW,300,10.5,11.0,40,0.00,,---,0.00,VWS V14.00,2013-03-12 19:14:00,
2013-03-12 14:20:00,32.9,11.8,29.93,NW,305,12.8,12.8,41,0.00,,---,0.00,VWS V14.00,2013-03-12 19:20:00,
2013-03-12 14:25:00,32.9,11.8,29.93,NW,310,15.4,15.4,41,0.00,,---,0.00,VWS V14.00,2013-03-12 19:25:00,
2013-03-12 14:30:00,32.5,11.5,29.93,NW,317,15.4,15.4,41,0.00,,---,0.00,VWS V14.00,2013-03-12 19:30:00,
2013-03-12 14:35:00,32.2,10.6,29.93,WNW,292,11.0,17.4,40,0.00,,---,0.00,VWS V14.00,2013-03-12 19:35:00,
2013-03-12 14:40:00,31.8,10.3,29.93,NW,314,11.0,13.6,40,0.00,,---,0.00,VWS V14.00,2013-03-12 19:40:00,
2013-03-12 14:45:00,31.8,10.3,29.93,NNW,335,15.0,17.9,40,0.00,,---,0.00,VWS V14.00,2013-03-12 19:45:00,
2013-03-12 14:50:00,32.7,11.6,29.93,NW,323,12.8,24.2,41,0.00,,---,0.00,VWS V14.00,2013-03-12 19:50:00,
2013-03-12 14:55:00,33.1,11.4,29.93,NNW,328,7.6,18.3,40,0.00,,---,0.00,VWS V14.00,2013-03-12 19:55:00,
2013-03-12 15:00:00,32.5,10.9,29.93,NW,326,13.2,18.8,40,0.00,,---,0.00,VWS V14.00,2013-03-12 20:00:00,
2013-03-12 15:05:00,31.6,10.1,29.93,WNW,301,12.3,15.0,40,0.00,,---,0.00,VWS V14.00,2013-03-12 20:05:00,
2013-03-12 15:10:00,32.0,10.4,29.93,NW,323,9.6,12.8,40,0.00,,---,0.00,VWS V14.00,2013-03-12 20:10:00,
2013-03-12 15:15:00,31.8,10.3,29.93,NNW,329,15.0,22.8,40,0.00,,---,0.00,VWS V14.00,2013-03-12 20:15:00,
2013-03-12 15:20:00,31.5,8.8,29.93,NW,311,15.4,15.4,38,0.00,,---,0.00,VWS V14.00,2013-03-12 20:20:00,
2013-03-12 15:25:00,31.5,8.8,29.93,NW,313,7.2,13.2,38,0.00,,---,0.00,VWS V14.00,2013-03-12 20:25:00,
2013-03-12 15:30:00,32.4,10.2,29.96,NNW,343,12.3,17.0,39,0.00,,---,0.00,VWS V14.00,2013-03-12 20:30:00,
2013-03-12 15:35:00,31.8,8.5,29.96,NNW,332,10.1,19.7,37,0.00,,---,0.00,VWS V14.00,2013-03-12 20:35:00,
2013-03-12 15:40:00,31.6,9.0,29.96,NNW,341,10.5,17.9,38,0.00,,---,0.00,VWS V14.00,2013-03-12 20:40:00,
2013-03-12 15:45:00,31.5,8.8,29.96,WNW,302,13.6,16.8,38,0.00,,---,0.00,VWS V14.00,2013-03-12 20:45:00,
2013-03-12 15:50:00,31.8,8.5,29.96,NW,324,17.4,17.9,37,0.00,,---,0.00,VWS V14.00,2013-03-12 20:50:00,
2013-03-12 15:55:00,33.3,9.8,29.96,NNW,329,19.7,19.7,37,0.00,,---,0.00,VWS V14.00,2013-03-12 20:55:00,
2013-03-12 16:00:00,32.7,8.1,29.96,WNW,294,12.8,17.4,35,0.00,,---,0.00,VWS V14.00,2013-03-12 21:00:00,
2013-03-12 16:05:00,33.4,9.4,29.96,NW,315,15.4,17.9,36,0.00,,---,0.00,VWS V14.00,2013-03-12 21:05:00,
2013-03-12 16:10:00,33.1,9.1,29.96,NW,320,13.2,17.4,36,0.00,,---,0.00,VWS V14.00,2013-03-12 21:10:00,
2013-03-12 16:15:00,32.2,7.6,29.96,NW,310,19.7,19.7,35,0.00,,---,0.00,VWS V14.00,2013-03-12 21:15:00,
2013-03-12 16:20:00,31.6,7.8,29.96,NNW,338,12.8,17.4,36,0.00,,---,0.00,VWS V14.00,2013-03-12 21:20:00,
2013-03-12 16:25:00,31.6,7.1,29.96,NNW,338,15.4,17.0,35,0.00,,---,0.00,VWS V14.00,2013-03-12 21:25:00,
2013-03-12 16:30:00,32.2,8.2,29.96,NNW,335,12.3,16.8,36,0.00,,---,0.00,VWS V14.00,2013-03-12 21:30:00,
2013-03-12 16:35:00,32.5,7.9,29.96,NW,311,15.0,16.8,35,0.00,,---,0.00,VWS V14.00,2013-03-12 21:35:00,
2013-03-12 16:40:00,32.2,7.6,29.96,NW,326,15.0,17.4,35,0.00,,---,0.00,VWS V14.00,2013-03-12 21:40:00,
2013-03-12 16:45:00,31.8,7.3,29.96,NNW,331,8.3,13.2,35,0.00,,---,0.00,VWS V14.00,2013-03-12 21:45:00,
2013-03-12 16:50:00,31.6,7.1,29.96,NW,304,15.4,15.4,35,0.00,,---,0.00,VWS V14.00,2013-03-12 21:50:00,
2013-03-12 16:55:00,31.1,6.7,29.96,NW,320,12.3,15.4,35,0.00,,---,0.00,VWS V14.00,2013-03-12 21:55:00,
2013-03-12 17:00:00,30.9,7.1,29.99,NW,318,10.1,10.1,36,0.00,,---,0.00,VWS V14.00,2013-03-12 22:00:00,
2013-03-12 17:05:00,30.7,6.3,29.99,NNW,340,12.8,15.9,35,0.00,,---,0.00,VWS V14.00,2013-03-12 22:05:00,
2013-03-12 17:10:00,30.6,6.8,29.99,NW,321,12.8,15.4,36,0.00,,---,0.00,VWS V14.00,2013-03-12 22:10:00,
2013-03-12 17:15:00,30.4,6.0,29.99,NNW,345,16.8,17.4,35,0.00,,---,0.00,VWS V14.00,2013-03-12 22:15:00,
2013-03-12 17:20:00,29.5,5.2,29.99,NNW,340,12.8,17.4,35,0.00,,---,0.00,VWS V14.00,2013-03-12 22:20:00,
2013-03-12 17:25:00,28.9,5.3,29.99,NNW,348,8.3,8.7,36,0.00,,---,0.00,VWS V14.00,2013-03-12 22:25:00,
2013-03-12 17:30:00,28.9,4.7,29.99,North,357,8.1,12.8,35,0.00,,---,0.00,VWS V14.00,2013-03-12 22:30:00,
2013-03-12 17:36:00,28.6,5.0,29.99,North,349,8.3,12.8,36,0.00,,---,0.00,VWS V14.00,2013-03-12 22:36:00,
2013-03-12 17:41:00,28.6,5.0,29.99,NNW,334,13.2,14.1,36,0.00,,---,0.00,VWS V14.00,2013-03-12 22:41:00,
2013-03-12 17:46:00,28.6,5.0,29.99,NNW,345,12.8,19.7,36,0.00,,---,0.00,VWS V14.00,2013-03-12 22:46:00,
2013-03-12 17:51:00,28.8,5.2,29.99,NW,323,13.2,14.5,36,0.00,,---,0.00,VWS V14.00,2013-03-12 22:51:00,
2013-03-12 17:56:00,28.6,5.0,29.99,NNW,345,14.5,17.4,36,0.00,,---,0.00,VWS V14.00,2013-03-12 22:56:00,
2013-03-12 18:01:00,28.6,5.6,29.99,NW,310,10.1,15.4,37,0.00,,---,0.00,VWS V14.00,2013-03-12 23:01:00,
2013-03-12 18:06:00,28.4,6.1,29.99,North,0,13.2,13.6,38,0.00,,---,0.00,VWS V14.00,2013-03-12 23:06:00,
2013-03-12 18:11:00,27.7,5.4,30.02,NNW,331,12.8,15.9,38,0.00,,---,0.00,VWS V14.00,2013-03-12 23:11:00,
2013-03-12 18:16:00,27.1,4.9,30.02,NNW,336,12.8,21.5,38,0.00,,---,0.00,VWS V14.00,2013-03-12 23:16:00,
2013-03-12 18:21:00,27.0,5.9,30.02,NNW,329,13.6,16.8,40,0.00,,---,0.00,VWS V14.00,2013-03-12 23:21:00,
2013-03-12 18:26:00,26.8,5.7,30.02,North,350,17.0,17.0,40,0.00,,---,0.00,VWS V14.00,2013-03-12 23:26:00,
2013-03-12 18:31:00,26.4,5.4,30.02,North,353,14.1,17.0,40,0.00,,---,0.00,VWS V14.00,2013-03-12 23:31:00,
2013-03-12 18:36:00,26.2,5.8,30.02,North,349,17.4,19.7,41,0.00,,---,0.00,VWS V14.00,2013-03-12 23:36:00,
2013-03-12 18:41:00,26.2,5.8,30.02,NNW,330,12.8,13.2,41,0.00,,---,0.00,VWS V14.00,2013-03-12 23:41:00,
2013-03-12 18:46:00,26.1,5.6,30.02,NNW,332,11.0,13.2,41,0.00,,---,0.00,VWS V14.00,2013-03-12 23:46:00,
2013-03-12 18:51:00,26.1,5.6,30.02,North,357,17.4,22.8,41,0.00,,---,0.00,VWS V14.00,2013-03-12 23:51:00,
2013-03-12 18:57:00,25.7,5.8,30.02,North,349,12.8,13.2,42,0.00,,---,0.00,VWS V14.00,2013-03-12 23:57:00,
2013-03-12 19:02:00,25.5,5.6,30.02,North,349,15.4,18.3,42,0.00,,---,0.00,VWS V14.00,2013-03-13 00:02:00,
2013-03-12 19:07:00,25.3,5.5,30.02,NNW,330,10.5,11.0,42,0.00,,---,0.00,VWS V14.00,2013-03-13 00:07:00,
2013-03-12 19:12:00,25.3,5.5,30.05,NNW,340,17.4,20.1,42,0.00,,---,0.00,VWS V14.00,2013-03-13 00:12:00,
2013-03-12 19:17:00,25.3,5.5,30.05,NNW,334,15.0,17.4,42,0.00,,---,0.00,VWS V14.00,2013-03-13 00:17:00,
2013-03-12 19:22:00,25.3,6.0,30.05,North,8,17.4,23.3,43,0.00,,---,0.00,VWS V14.00,2013-03-13 00:22:00,
2013-03-12 19:27:00,25.2,5.8,30.05,North,353,12.3,13.2,43,0.00,,---,0.00,VWS V14.00,2013-03-13 00:27:00,
2013-03-12 19:32:00,25.0,6.2,30.05,NNW,334,11.0,15.0,44,0.00,,---,0.00,VWS V14.00,2013-03-13 00:32:00,
2013-03-12 19:37:00,25.0,6.2,30.05,North,357,15.4,15.4,44,0.00,,---,0.00,VWS V14.00,2013-03-13 00:37:00,
2013-03-12 19:42:00,25.0,6.2,30.05,NNW,332,12.8,13.2,44,0.00,,---,0.00,VWS V14.00,2013-03-13 00:42:00,
2013-03-12 19:47:00,25.0,6.2,30.05,North,353,14.5,17.4,44,0.00,,---,0.00,VWS V14.00,2013-03-13 00:47:00,
2013-03-12 19:52:00,25.0,6.2,30.05,NNW,330,15.4,15.9,44,0.00,,---,0.00,VWS V14.00,2013-03-13 00:52:00,
2013-03-12 19:57:00,24.8,6.5,30.08,NNW,329,12.3,12.8,45,0.00,,---,0.00,VWS V14.00,2013-03-13 00:57:00,
2013-03-12 20:02:00,24.8,6.5,30.08,North,353,7.6,15.9,45,0.00,,---,0.00,VWS V14.00,2013-03-13 01:02:00,
2013-03-12 20:07:00,24.6,6.3,30.08,NNW,342,11.0,12.3,45,0.00,,---,0.00,VWS V14.00,2013-03-13 01:07:00,
2013-03-12 20:12:00,24.4,6.2,30.08,NNW,330,10.5,13.2,45,0.00,,---,0.00,VWS V14.00,2013-03-13 01:12:00,
2013-03-12 20:17:00,24.4,6.2,30.08,North,353,12.3,15.0,45,0.00,,---,0.00,VWS V14.00,2013-03-13 01:17:00,
2013-03-12 20:22:00,24.4,6.2,30.08,NNW,346,10.1,13.6,45,0.00,,---,0.00,VWS V14.00,2013-03-13 01:22:00,
2013-03-12 20:28:00,24.4,6.2,30.08,NNW,331,10.5,13.2,45,0.00,,---,0.00,VWS V14.00,2013-03-13 01:28:00,
2013-03-12 20:33:00,24.4,6.2,30.08,NNW,330,10.1,12.8,45,0.00,,---,0.00,VWS V14.00,2013-03-13 01:33:00,
2013-03-12 20:38:00,24.3,6.0,30.08,NNW,329,8.7,9.2,45,0.00,,---,0.00,VWS V14.00,2013-03-13 01:38:00,
2013-03-12 20:43:00,24.1,5.8,30.08,NNW,336,5.4,7.6,45,0.00,,---,0.00,VWS V14.00,2013-03-13 01:43:00,
2013-03-12 20:48:00,23.7,6.0,30.08,WNW,299,5.8,6.3,46,0.00,,---,0.00,VWS V14.00,2013-03-13 01:48:00,
2013-03-12 20:53:00,23.4,5.7,30.08,NW,321,5.4,7.2,46,0.00,,---,0.00,VWS V14.00,2013-03-13 01:53:00,
2013-03-12 20:58:00,23.4,6.1,30.11,NNW,330,5.8,6.3,47,0.00,,---,0.00,VWS V14.00,2013-03-13 01:58:00,
2013-03-12 21:03:00,23.2,5.9,30.11,NW,323,5.4,5.8,47,0.00,,---,0.00,VWS V14.00,2013-03-13 02:03:00,
2013-03-12 21:08:00,23.0,5.8,30.11,NW,312,6.7,7.6,47,0.00,,---,0.00,VWS V14.00,2013-03-13 02:08:00,
2013-03-12 21:13:00,22.8,6.1,30.11,NW,314,5.8,6.3,48,0.00,,---,0.00,VWS V14.00,2013-03-13 02:13:00,
2013-03-12 21:18:00,22.6,5.9,30.11,NW,325,8.1,8.1,48,0.00,,---,0.00,VWS V14.00,2013-03-13 02:18:00,
2013-03-12 21:23:00,22.5,5.3,30.11,NNW,329,5.4,8.1,47,0.00,,---,0.00,VWS V14.00,2013-03-13 02:23:00,
2013-03-12 21:28:00,22.3,5.1,30.11,NNW,327,5.4,7.6,47,0.00,,---,0.00,VWS V14.00,2013-03-13 02:28:00,
2013-03-12 21:33:00,22.1,5.0,30.11,NW,316,7.6,7.6,47,0.00,,---,0.00,VWS V14.00,2013-03-13 02:33:00,
2013-03-12 21:38:00,21.9,4.8,30.11,NNW,329,5.8,7.6,47,0.00,,---,0.00,VWS V14.00,2013-03-13 02:38:00,
2013-03-12 21:43:00,21.9,4.8,30.11,NW,318,6.3,8.1,47,0.00,,---,0.00,VWS V14.00,2013-03-13 02:43:00,
2013-03-12 21:48:00,21.9,4.3,30.11,NNW,336,6.3,7.6,46,0.00,,---,0.00,VWS V14.00,2013-03-13 02:48:00,
2013-03-12 21:53:00,21.7,4.2,30.11,NW,314,7.6,7.6,46,0.00,,---,0.00,VWS V14.00,2013-03-13 02:53:00,
2013-03-12 21:58:00,21.6,4.0,30.11,NW,315,8.1,8.1,46,0.00,,---,0.00,VWS V14.00,2013-03-13 02:58:00,
2013-03-12 22:03:00,21.6,4.0,30.11,NNW,329,4.9,6.3,46,0.00,,---,0.00,VWS V14.00,2013-03-13 03:03:00,
2013-03-12 22:08:00,21.2,4.1,30.11,NNW,327,5.8,7.6,47,0.00,,---,0.00,VWS V14.00,2013-03-13 03:08:00,
2013-03-12 22:13:00,21.2,3.7,30.14,NW,317,5.8,6.7,46,0.00,,---,0.00,VWS V14.00,2013-03-13 03:13:00,
2013-03-12 22:18:00,21.0,3.5,30.14,NW,318,5.8,6.7,46,0.00,,---,0.00,VWS V14.00,2013-03-13 03:18:00,
2013-03-12 22:23:00,21.0,3.5,30.14,NNW,337,7.6,8.3,46,0.00,,---,0.00,VWS V14.00,2013-03-13 03:23:00,
2013-03-12 22:28:00,20.8,3.3,30.14,NNW,340,7.6,7.6,46,0.00,,---,0.00,VWS V14.00,2013-03-13 03:28:00,
2013-03-12 22:33:00,20.8,3.3,30.14,NW,322,6.3,6.3,46,0.00,,---,0.00,VWS V14.00,2013-03-13 03:33:00,
2013-03-12 22:38:00,20.7,3.2,30.14,NNW,327,4.9,5.8,46,0.00,,---,0.00,VWS V14.00,2013-03-13 03:38:00,
2013-03-12 22:43:00,20.5,3.0,30.14,NNW,330,5.8,6.3,46,0.00,,---,0.00,VWS V14.00,2013-03-13 03:43:00,
2013-03-12 22:48:00,20.3,2.8,30.14,NW,322,5.8,7.6,46,0.00,,---,0.00,VWS V14.00,2013-03-13 03:48:00,
2013-03-12 22:53:00,20.1,2.7,30.14,NNW,329,4.9,6.3,46,0.00,,---,0.00,VWS V14.00,2013-03-13 03:53:00,
2013-03-12 22:58:00,20.1,2.7,30.14,NW,319,5.4,6.3,46,0.00,,---,0.00,VWS V14.00,2013-03-13 03:58:00,
2013-03-12 23:00:00,20.1,2.7,30.14,NW,312,7.6,7.6,46,0.00,,---,0.00,VWS V14.00,2013-03-13 04:00:00,
2013-03-12 23:05:00,19.9,2.5,30.14,NW,321,4.9,6.7,46,0.00,,---,0.00,VWS V14.00,2013-03-13 04:05:00,
2013-03-12 23:10:00,19.8,2.3,30.14,NW,314,5.4,6.3,46,0.00,,---,0.00,VWS V14.00,2013-03-13 04:10:00,
2013-03-12 23:15:00,19.6,2.2,30.14,NW,322,5.4,5.4,46,0.00,,---,0.00,VWS V14.00,2013-03-13 04:15:00,
2013-03-12 23:20:00,19.6,2.2,30.14,NW,321,4.9,5.8,46,0.00,,---,0.00,VWS V14.00,2013-03-13 04:20:00,
2013-03-12 23:25:00,19.4,2.0,30.14,NW,306,5.4,5.4,46,0.00,,---,0.00,VWS V14.00,2013-03-13 04:25:00,
2013-03-12 23:30:00,19.4,2.0,30.17,NW,308,6.3,6.3,46,0.00,,---,0.00,VWS V14.00,2013-03-13 04:30:00,
2013-03-12 23:35:00,19.2,1.8,30.17,NW,322,5.8,8.1,46,0.00,,---,0.00,VWS V14.00,2013-03-13 04:35:00,
2013-03-12 23:40:00,19.0,1.7,30.17,NW,306,5.8,8.3,46,0.00,,---,0.00,VWS V14.00,2013-03-13 04:40:00,
2013-03-12 23:45:00,19.0,2.1,30.17,NW,326,10.1,10.1,47,0.00,,---,0.00,VWS V14.00,2013-03-13 04:45:00,
2013-03-12 23:50:00,19.0,2.1,30.17,NW,304,7.6,8.3,47,0.00,,---,0.00,VWS V14.00,2013-03-13 04:50:00,
2013-03-12 23:55:00,19.0,2.6,30.17,NW,304,12.3,12.3,48,0.00,,---,0.00,VWS V14.00,2013-03-13 04:55:00,